Time;durP1;ratioP1;P1;durP2;ratioP2;P2;SDS_P1;SDS_P2;PMS_P1;PMS_P2;Temp;Humidity;BMP_temperature;BMP_pressure;BME280_temperature;BME280_humidity;BME280_pressure;Samples;Min_cycle;Max_cycle;Signal;HPM_P1;HPM_P2
2021/11/20 00:01:19;;;;;;;;;41.33;36.67;;;;;;;;5122362;27;14576;-72
2021/11/20 00:03:45;;;;;;;;;31.00;29.33;;;;;;;;5122713;27;9064;-73
2021/11/20 00:06:12;;;;;;;;;38.33;29.67;;;;;;;;5121929;27;13384;-72
2021/11/20 00:08:37;;;;;;;;;36.67;34.33;;;;;;;;5122585;27;11784;-72
2021/11/20 00:11:04;;;;;;;;;40.67;34.00;;;;;;;;5122504;27;12500;-74
2021/11/20 00:13:29;;;;;;;;;39.33;34.67;;;;;;;;5122091;27;14527;-72
2021/11/20 00:15:57;;;;;;;;;39.00;34.33;;;;;;;;5120606;28;15218;-73
2021/11/20 00:18:22;;;;;;;;;35.00;34.33;;;;;;;;5122828;27;8813;-73
2021/11/20 00:20:52;;;;;;;;;36.00;34.00;;;;;;;;5122182;27;8767;-72
2021/11/20 00:23:19;;;;;;;;;38.67;34.33;;;;;;;;5122118;27;11460;-73
2021/11/20 00:25:56;;;;;;;;;39.67;32.33;;;;;;;;5122312;27;12605;-72
2021/11/20 00:28:29;;;;;;;;;40.00;35.67;;;;;;;;5122677;27;9901;-71
2021/11/20 00:30:58;;;;;;;;;34.33;31.33;;;;;;;;5121757;27;14103;-72
2021/11/20 00:33:29;;;;;;;;;38.67;35.33;;;;;;;;5122204;27;13842;-72
2021/11/20 00:35:55;;;;;;;;;38.00;33.00;;;;;;;;5121838;27;10434;-72
2021/11/20 00:38:21;;;;;;;;;38.33;33.33;;;;;;;;5119929;28;12408;-72
2021/11/20 00:40:50;;;;;;;;;38.67;35.33;;;;;;;;5122125;28;8817;-72
2021/11/20 00:43:16;;;;;;;;;28.67;27.00;;;;;;;;5121754;27;9673;-73
2021/11/20 00:45:42;;;;;;;;;36.33;34.00;;;;;;;;5121829;27;13935;-73
2021/11/20 00:48:08;;;;;;;;;39.33;36.33;;;;;;;;5121908;27;12275;-72
2021/11/20 00:50:36;;;;;;;;;35.00;30.00;;;;;;;;5120976;27;11891;-72
2021/11/20 00:53:02;;;;;;;;;36.67;32.00;;;;;;;;5121734;27;11716;-73
2021/11/20 00:55:28;;;;;;;;;33.67;31.67;;;;;;;;5121848;27;10607;-73
2021/11/20 00:57:56;;;;;;;;;38.00;33.00;;;;;;;;5121781;27;11512;-72
2021/11/20 08:24:51;;;;;;;;;35.67;29.33;;;;;;;;5130019;27;2314969;-76
2021/11/20 08:27:16;;;;;;;;;29.67;28.00;;;;;;;;5198882;27;24292;-74
2021/11/20 08:29:42;;;;;;;;;33.00;29.00;;;;;;;;5199448;27;13415;-78
2021/11/20 08:32:09;;;;;;;;;32.67;27.00;;;;;;;;5197982;27;12347;-75
2021/11/20 08:34:36;;;;;;;;;36.00;32.33;;;;;;;;5200270;27;10940;-74
2021/11/20 08:37:01;;;;;;;;;35.67;32.00;;;;;;;;5199722;27;12539;-72
2021/11/20 08:39:27;;;;;;;;;32.33;31.33;;;;;;;;5199827;27;11988;-78
2021/11/20 08:41:53;;;;;;;;;35.33;30.00;;;;;;;;5199493;27;13041;-81
2021/11/20 08:44:18;;;;;;;;;33.33;32.33;;;;;;;;5180717;27;12183;-74
2021/11/20 08:46:44;;;;;;;;;39.33;33.33;;;;;;;;5199601;27;11470;-74
2021/11/20 08:49:11;;;;;;;;;39.00;29.67;;;;;;;;5199129;27;8930;-78
2021/11/20 08:51:37;;;;;;;;;37.67;33.67;;;;;;;;5178064;27;14630;-74
2021/11/20 08:54:02;;;;;;;;;33.67;25.67;;;;;;;;5197343;27;11414;-73
2021/11/20 08:56:28;;;;;;;;;47.33;38.00;;;;;;;;5198664;27;10193;-74
2021/11/20 08:58:53;;;;;;;;;40.00;35.00;;;;;;;;5199793;27;13229;-73
2021/11/20 09:01:26;;;;;;;;;34.33;31.00;;;;;;;;5198910;27;10526;-72
2021/11/20 09:04:00;;;;;;;;;47.33;38.33;;;;;;;;5198962;27;12512;-73
2021/11/20 09:06:36;;;;;;;;;39.33;38.00;;;;;;;;5198932;27;13575;-73
2021/11/20 09:09:12;;;;;;;;;50.67;38.33;;;;;;;;5199059;27;13560;-75
2021/11/20 09:11:45;;;;;;;;;37.00;32.67;;;;;;;;5198823;27;13985;-72
2021/11/20 09:14:14;;;;;;;;;38.67;35.00;;;;;;;;5199498;27;15027;-77
2021/11/20 09:16:40;;;;;;;;;42.33;37.33;;;;;;;;5179508;27;11921;-74
2021/11/20 09:19:06;;;;;;;;;41.67;38.33;;;;;;;;5199759;27;13361;-74
2021/11/20 09:21:32;;;;;;;;;43.00;36.33;;;;;;;;5199257;27;10717;-72
2021/11/20 09:23:58;;;;;;;;;49.33;36.67;;;;;;;;5199508;27;11468;-79
2021/11/20 09:26:23;;;;;;;;;49.67;36.67;;;;;;;;5180491;27;14726;-75
2021/11/20 09:28:48;;;;;;;;;42.00;37.00;;;;;;;;5199088;27;8843;-75
2021/11/20 09:31:14;;;;;;;;;43.33;36.33;;;;;;;;5096715;27;12283;-74
2021/11/20 09:33:40;;;;;;;;;41.67;36.67;;;;;;;;5159127;27;11602;-73
2021/11/20 09:36:07;;;;;;;;;44.67;34.33;;;;;;;;5143289;27;11570;-74
2021/11/20 09:38:33;;;;;;;;;41.67;33.67;;;;;;;;5123124;27;13505;-74
2021/11/20 09:40:59;;;;;;;;;44.33;35.67;;;;;;;;5142285;27;11397;-72
2021/11/20 09:43:27;;;;;;;;;37.00;35.00;;;;;;;;5141436;27;10481;-73
2021/11/20 09:45:56;;;;;;;;;41.67;36.67;;;;;;;;5142238;27;13843;-72
2021/11/20 09:48:42;;;;;;;;;41.33;34.33;;;;;;;;5124180;27;15963;-73
2021/11/20 09:51:39;;;;;;;;;44.67;39.33;;;;;;;;5141552;27;10468;-72
2021/11/20 09:54:08;;;;;;;;;34.67;34.00;;;;;;;;5096385;27;10488;-73
2021/11/20 09:56:38;;;;;;;;;43.33;33.33;;;;;;;;5142688;27;13637;-74
2021/11/20 09:59:06;;;;;;;;;41.33;39.00;;;;;;;;5143280;27;13370;-74
2021/11/20 10:01:54;;;;;;;;;39.33;33.67;;;;;;;;5142173;27;11479;-73
2021/11/20 10:04:33;;;;;;;;;40.33;37.67;;;;;;;;5142241;27;13668;-73
2021/11/20 10:07:14;;;;;;;;;41.33;37.33;;;;;;;;5143124;27;10963;-74
2021/11/20 10:09:43;;;;;;;;;37.33;27.33;;;;;;;;5142470;27;12595;-73
2021/11/20 10:12:13;;;;;;;;;45.00;40.00;;;;;;;;5142775;27;9840;-74
2021/11/20 10:14:43;;;;;;;;;43.33;39.00;;;;;;;;5141788;27;13499;-74
2021/11/20 10:17:27;;;;;;;;;44.00;36.00;;;;;;;;5142322;27;11824;-73
2021/11/20 10:19:55;;;;;;;;;49.67;40.00;;;;;;;;5142904;27;10464;-73
2021/11/20 10:22:31;;;;;;;;;50.67;40.00;;;;;;;;5141702;27;12001;-73
2021/11/20 10:25:09;;;;;;;;;46.33;38.67;;;;;;;;5123211;27;9759;-74
2021/11/20 10:27:55;;;;;;;;;58.00;43.33;;;;;;;;5141895;27;13885;-74
2021/11/20 10:30:40;;;;;;;;;57.00;46.00;;;;;;;;5141740;27;13313;-74
2021/11/20 10:33:06;;;;;;;;;63.00;51.00;;;;;;;;5126990;27;11554;-74
2021/11/20 10:35:41;;;;;;;;;59.00;47.67;;;;;;;;5141696;27;10557;-73
2021/11/20 10:38:26;;;;;;;;;60.67;49.00;;;;;;;;5141917;27;13382;-74
2021/11/20 10:41:10;;;;;;;;;60.33;47.67;;;;;;;;5141332;27;13308;-74
2021/11/20 10:43:47;;;;;;;;;54.33;44.00;;;;;;;;5142014;27;10434;-74
2021/11/20 10:46:12;;;;;;;;;56.00;45.00;;;;;;;;5122343;27;15810;-73
2021/11/20 10:48:41;;;;;;;;;49.00;42.00;;;;;;;;5142090;27;10760;-74
2021/11/20 10:51:39;;;;;;;;;59.00;43.00;;;;;;;;5141638;27;10462;-73
2021/11/20 10:54:37;;;;;;;;;54.33;41.67;;;;;;;;5095468;27;10435;-73
2021/11/20 10:57:20;;;;;;;;;50.67;41.33;;;;;;;;5096247;27;11458;-75
2021/11/20 11:00:04;;;;;;;;;53.75;41.50;;;;;;;;5141435;27;12014;-74
2021/11/20 11:02:32;;;;;;;;;45.75;37.75;;;;;;;;5141338;27;11699;-72
2021/11/20 11:05:06;;;;;;;;;45.50;37.00;;;;;;;;5141748;27;13352;-71
2021/11/20 11:07:35;;;;;;;;;55.25;42.00;;;;;;;;5141391;27;11482;-73
2021/11/20 11:10:12;;;;;;;;;39.75;36.25;;;;;;;;5141674;27;13721;-71
2021/11/20 11:12:51;;;;;;;;;48.25;39.75;;;;;;;;5122295;27;13774;-74
2021/11/20 11:15:28;;;;;;;;;49.50;41.00;;;;;;;;5141265;27;12596;-84
2021/11/20 11:18:06;;;;;;;;;38.50;34.75;;;;;;;;5122094;27;14509;-83
2021/11/20 11:20:38;;;;;;;;;52.75;42.50;;;;;;;;5141909;27;14200;-75
2021/11/20 11:23:15;;;;;;;;;44.00;37.00;;;;;;;;5124623;27;13518;-76
2021/11/20 11:25:55;;;;;;;;;43.75;37.25;;;;;;;;5119660;27;14029;-77
2021/11/20 11:28:25;;;;;;;;;49.75;40.00;;;;;;;;5119904;27;12311;-76
2021/11/20 11:31:10;;;;;;;;;53.25;42.00;;;;;;;;5118311;28;12651;-75
2021/11/20 11:33:38;;;;;;;;;50.50;39.75;;;;;;;;5107819;28;11676;-73
2021/11/20 11:36:25;;;;;;;;;47.75;39.00;;;;;;;;5119941;27;12480;-74
2021/11/20 11:38:59;;;;;;;;;48.00;40.00;;;;;;;;5119487;27;13790;-76
2021/11/20 11:41:40;;;;;;;;;49.75;42.00;;;;;;;;5119748;27;12663;-76
2021/11/20 11:44:10;;;;;;;;;48.00;40.00;;;;;;;;5119770;27;11529;-75
2021/11/20 11:46:49;;;;;;;;;50.75;40.00;;;;;;;;5117967;28;11598;-77
2021/11/20 11:49:20;;;;;;;;;48.00;37.25;;;;;;;;5119603;27;11554;-77
2021/11/20 11:51:56;;;;;;;;;37.25;32.50;;;;;;;;5119564;27;13307;-76
2021/11/20 11:54:37;;;;;;;;;55.25;45.00;;;;;;;;5118939;27;13481;-76
2021/11/20 11:57:03;;;;;;;;;58.50;45.50;;;;;;;;5118315;28;16528;-76
2021/11/20 11:59:43;;;;;;;;;56.25;44.75;;;;;;;;5119994;27;11549;-76
2021/11/20 12:02:14;;;;;;;;;45.25;40.50;;;;;;;;5124808;27;13087;-76
2021/11/20 12:04:44;;;;;;;;;52.75;44.00;;;;;;;;5125859;27;13587;-76
2021/11/20 12:07:12;;;;;;;;;41.75;38.00;;;;;;;;5128688;27;13863;-76
2021/11/20 12:09:47;;;;;;;;;49.50;41.50;;;;;;;;5130145;27;11663;-74
2021/11/20 12:12:29;;;;;;;;;46.50;38.75;;;;;;;;5119287;28;12831;-75
2021/11/20 12:15:06;;;;;;;;;41.75;38.00;;;;;;;;5099229;28;14402;-76
2021/11/20 12:17:52;;;;;;;;;60.67;50.67;;;;;;;;5118840;28;12473;-74
2021/11/20 12:20:38;;;;;;;;;55.50;45.25;;;;;;;;5118735;28;13511;-74
2021/11/20 12:23:22;;;;;;;;;43.75;38.00;;;;;;;;5099302;28;15396;-74
2021/11/20 12:25:50;;;;;;;;;47.00;37.75;;;;;;;;5118506;28;15302;-75
2021/11/20 12:28:28;;;;;;;;;52.25;43.00;;;;;;;;5119206;28;12188;-74
2021/11/20 12:31:04;;;;;;;;;50.25;41.75;;;;;;;;5118214;28;13494;-75
2021/11/20 12:33:47;;;;;;;;;49.25;40.00;;;;;;;;5100443;28;13924;-75
2021/11/20 12:36:15;;;;;;;;;55.33;44.67;;;;;;;;5100324;28;15731;-76
2021/11/20 12:39:00;;;;;;;;;50.75;41.25;;;;;;;;5118828;28;13430;-77
2021/11/20 12:41:25;;;;;;;;;49.00;40.50;;;;;;;;5117134;28;11485;-78
2021/11/20 12:44:09;;;;;;;;;45.50;39.75;;;;;;;;5100541;28;15335;-84
2021/11/20 12:46:57;;;;;;;;;44.25;38.75;;;;;;;;5119006;28;12585;-74
2021/11/20 12:49:33;;;;;;;;;40.25;38.25;;;;;;;;5104873;28;11621;-76
2021/11/20 12:51:59;;;;;;;;;44.50;38.50;;;;;;;;5118129;28;11592;-75
2021/11/20 12:54:41;;;;;;;;;44.25;38.75;;;;;;;;5123163;27;11665;-76
2021/11/20 12:57:25;;;;;;;;;40.00;33.25;;;;;;;;5127690;27;11497;-76
2021/11/20 12:59:53;;;;;;;;;42.00;38.00;;;;;;;;5078636;27;11569;-78
2021/11/20 13:02:23;;;;;;;;;47.25;38.25;;;;;;;;5139719;27;12436;-73
2021/11/20 13:04:49;;;;;;;;;50.50;38.75;;;;;;;;5138100;27;11501;-74
2021/11/20 13:07:21;;;;;;;;;44.75;41.50;;;;;;;;5119711;27;12799;-73
2021/11/20 13:09:47;;;;;;;;;57.00;43.25;;;;;;;;5139046;27;14437;-74
2021/11/20 13:12:24;;;;;;;;;46.25;40.25;;;;;;;;5141596;27;13373;-73
2021/11/20 13:15:09;;;;;;;;;42.25;40.25;;;;;;;;5141335;27;12302;-72
2021/11/20 13:17:56;;;;;;;;;49.75;41.00;;;;;;;;5124170;27;11682;-73
2021/11/20 13:20:24;;;;;;;;;45.50;38.50;;;;;;;;5141800;27;11637;-77
2021/11/20 13:23:01;;;;;;;;;45.50;39.25;;;;;;;;5141503;27;12539;-73
2021/11/20 13:25:27;;;;;;;;;46.33;41.33;;;;;;;;5142861;27;11489;-75
2021/11/20 13:27:54;;;;;;;;;52.00;42.67;;;;;;;;5142188;27;11529;-75
2021/11/20 13:30:21;;;;;;;;;42.00;41.00;;;;;;;;5142853;27;13381;-75
2021/11/20 13:32:47;;;;;;;;;52.50;38.25;;;;;;;;5141910;27;13361;-74
2021/11/20 13:35:13;;;;;;;;;47.25;37.25;;;;;;;;5141955;27;13537;-73
2021/11/20 13:37:38;;;;;;;;;42.75;37.75;;;;;;;;5123141;27;12547;-75
2021/11/20 13:40:04;;;;;;;;;47.67;41.33;;;;;;;;5123221;27;10984;-77
2021/11/20 13:42:36;;;;;;;;;51.33;39.00;;;;;;;;5123694;27;13524;-75
2021/11/20 13:45:03;;;;;;;;;54.33;44.00;;;;;;;;5142188;27;13774;-78
2021/11/20 13:47:28;;;;;;;;;53.00;42.00;;;;;;;;5142191;27;11494;-74
2021/11/20 13:49:58;;;;;;;;;52.00;41.67;;;;;;;;5142076;27;11471;-78
2021/11/20 13:52:23;;;;;;;;;55.67;43.33;;;;;;;;5141861;27;11455;-78
2021/11/20 13:54:56;;;;;;;;;49.33;42.00;;;;;;;;5142402;27;11352;-75
2021/11/20 13:57:21;;;;;;;;;51.67;44.67;;;;;;;;5123690;27;16676;-78
2021/11/20 13:59:47;;;;;;;;;52.00;42.00;;;;;;;;5141942;27;13224;-74
2021/11/20 14:02:12;;;;;;;;;55.00;41.67;;;;;;;;5141725;27;11587;-76
2021/11/20 14:04:42;;;;;;;;;52.33;41.33;;;;;;;;5140810;27;11540;-75
2021/11/20 14:07:09;;;;;;;;;57.67;45.00;;;;;;;;5139965;27;11447;-74
2021/11/20 14:09:44;;;;;;;;;53.00;42.33;;;;;;;;5140987;27;11460;-73
2021/11/20 14:12:12;;;;;;;;;54.67;41.33;;;;;;;;5136184;27;11845;-73
2021/11/20 14:14:40;;;;;;;;;49.00;37.25;;;;;;;;5137004;27;11663;-77
2021/11/20 14:17:10;;;;;;;;;51.00;41.33;;;;;;;;5140432;27;12707;-73
2021/11/20 14:19:36;;;;;;;;;44.67;38.00;;;;;;;;5110300;27;12905;-74
2021/11/20 14:22:03;;;;;;;;;59.67;45.00;;;;;;;;5139734;27;13367;-79
2021/11/20 14:24:30;;;;;;;;;38.00;31.33;;;;;;;;5139310;27;11032;-72
2021/11/20 14:26:59;;;;;;;;;53.67;43.00;;;;;;;;5116157;27;13584;-76
2021/11/20 14:29:24;;;;;;;;;55.67;43.00;;;;;;;;5139823;27;13611;-73
2021/11/20 14:31:50;;;;;;;;;51.33;41.67;;;;;;;;5140150;27;8830;-76
2021/11/20 14:34:18;;;;;;;;;48.33;40.00;;;;;;;;5138841;27;11359;-75
2021/11/20 14:36:49;;;;;;;;;53.00;44.67;;;;;;;;5139336;27;13541;-75
2021/11/20 14:39:27;;;;;;;;;57.67;43.67;;;;;;;;5136582;27;14700;-77
2021/11/20 14:41:53;;;;;;;;;52.33;43.00;;;;;;;;5139669;27;10497;-79
2021/11/20 14:44:19;;;;;;;;;50.00;41.33;;;;;;;;5141530;27;11912;-78
2021/11/20 14:46:45;;;;;;;;;61.33;43.33;;;;;;;;5142393;27;11462;-84
2021/11/20 14:49:12;;;;;;;;;58.33;44.33;;;;;;;;5123130;27;13101;-85
2021/11/20 14:51:39;;;;;;;;;52.33;42.67;;;;;;;;5138366;27;11035;-86
2021/11/20 14:54:08;;;;;;;;;52.67;41.00;;;;;;;;5166072;27;11431;-86
2021/11/20 14:56:34;;;;;;;;;51.67;42.00;;;;;;;;5166362;27;10579;-85
2021/11/20 14:58:59;;;;;;;;;49.00;41.00;;;;;;;;5151780;27;8812;-85
2021/11/20 15:01:24;;;;;;;;;53.00;42.00;;;;;;;;5147872;27;12504;-86
2021/11/20 15:03:51;;;;;;;;;46.00;41.33;;;;;;;;5143081;27;10695;-84
2021/11/20 15:06:20;;;;;;;;;43.67;41.00;;;;;;;;5141074;27;13405;-83
2021/11/20 15:08:45;;;;;;;;;48.33;41.33;;;;;;;;5140973;27;11467;-84
2021/11/20 15:11:10;;;;;;;;;51.00;41.00;;;;;;;;5136911;27;11615;-83
2021/11/20 15:13:35;;;;;;;;;51.33;40.33;;;;;;;;5141198;27;14532;-77
2021/11/20 15:16:01;;;;;;;;;52.33;43.33;;;;;;;;5137910;27;10447;-87
2021/11/20 15:18:27;;;;;;;;;55.67;46.00;;;;;;;;5141200;27;8991;-77
2021/11/20 15:20:52;;;;;;;;;66.67;46.33;;;;;;;;5117047;27;13785;-75
2021/11/20 15:23:18;;;;;;;;;59.67;45.33;;;;;;;;5118277;27;13712;-78
2021/11/20 15:25:43;;;;;;;;;60.67;47.00;;;;;;;;5123449;27;12536;-81
2021/11/20 15:28:08;;;;;;;;;58.67;44.33;;;;;;;;5142295;27;13960;-80
2021/11/20 15:30:34;;;;;;;;;49.00;38.67;;;;;;;;5149576;27;13296;-81
2021/11/20 15:33:00;;;;;;;;;38.67;33.00;;;;;;;;5162323;27;13480;-80
2021/11/20 15:35:26;;;;;;;;;51.67;42.00;;;;;;;;5162583;27;13382;-80
2021/11/20 15:37:51;;;;;;;;;59.33;44.67;;;;;;;;5162404;27;10637;-80
2021/11/20 15:40:17;;;;;;;;;60.33;47.67;;;;;;;;5152590;27;11790;-80
2021/11/20 15:42:42;;;;;;;;;49.00;41.67;;;;;;;;5140664;27;10772;-82
2021/11/20 15:45:09;;;;;;;;;60.33;43.67;;;;;;;;5141154;27;12276;-80
2021/11/20 15:47:36;;;;;;;;;51.67;45.33;;;;;;;;5141233;27;12288;-82
2021/11/20 15:50:02;;;;;;;;;53.67;43.00;;;;;;;;5138991;27;13850;-80
2021/11/20 15:52:27;;;;;;;;;57.33;45.33;;;;;;;;5139729;27;12719;-81
2021/11/20 15:54:52;;;;;;;;;54.33;44.33;;;;;;;;5138963;27;12303;-75
2021/11/20 15:57:18;;;;;;;;;61.00;46.33;;;;;;;;5136817;27;8841;-76
2021/11/20 15:59:44;;;;;;;;;57.33;46.00;;;;;;;;5139348;27;12455;-77
2021/11/20 16:02:10;;;;;;;;;63.00;46.00;;;;;;;;5139729;27;13693;-75
2021/11/20 16:04:36;;;;;;;;;56.00;43.00;;;;;;;;5129283;27;12283;-75
2021/11/20 16:07:01;;;;;;;;;52.33;42.67;;;;;;;;5125806;27;13722;-76
2021/11/20 16:09:27;;;;;;;;;64.00;50.00;;;;;;;;5139748;27;11399;-75
2021/11/20 16:11:53;;;;;;;;;61.33;46.00;;;;;;;;5136996;27;13691;-77
2021/11/20 16:14:18;;;;;;;;;57.67;46.33;;;;;;;;5139065;27;11446;-78
2021/11/20 16:16:44;;;;;;;;;59.67;45.67;;;;;;;;5140206;27;13640;-78
2021/11/20 16:19:10;;;;;;;;;61.00;49.33;;;;;;;;5141735;27;11498;-81
2021/11/20 16:21:35;;;;;;;;;57.33;46.33;;;;;;;;5123499;27;13959;-79
2021/11/20 16:24:01;;;;;;;;;52.67;44.00;;;;;;;;5147428;27;12356;-76
2021/11/20 16:26:26;;;;;;;;;54.00;44.33;;;;;;;;5139184;27;12479;-77
2021/11/20 16:28:52;;;;;;;;;64.33;53.00;;;;;;;;5139087;27;12611;-78
2021/11/20 16:31:17;;;;;;;;;62.67;50.33;;;;;;;;5138462;27;14420;-75
2021/11/20 16:33:42;;;;;;;;;60.00;47.00;;;;;;;;5138427;27;11650;-74
2021/11/20 16:36:07;;;;;;;;;64.33;49.67;;;;;;;;5138421;27;12188;-76
2021/11/20 16:38:50;;;;;;;;;71.33;53.67;;;;;;;;5138579;27;11373;-76
2021/11/20 16:41:16;;;;;;;;;74.67;57.33;;;;;;;;5118522;27;13419;-78
2021/11/20 16:43:41;;;;;;;;;75.33;57.33;;;;;;;;5138333;27;11702;-77
2021/11/20 16:46:08;;;;;;;;;71.33;57.33;;;;;;;;5141544;27;8988;-76
2021/11/20 16:48:34;;;;;;;;;72.00;57.67;;;;;;;;5140971;27;8779;-75
2021/11/20 16:51:00;;;;;;;;;78.00;60.67;;;;;;;;5141725;27;11479;-77
2021/11/20 16:53:26;;;;;;;;;79.00;59.67;;;;;;;;5138561;27;9808;-77
2021/11/20 16:55:51;;;;;;;;;75.00;58.33;;;;;;;;5141691;27;9337;-77
2021/11/20 16:58:17;;;;;;;;;76.67;57.67;;;;;;;;5141340;27;12656;-73
2021/11/20 17:00:45;;;;;;;;;81.00;61.00;;;;;;;;5141720;27;11535;-77
2021/11/20 17:03:11;;;;;;;;;72.67;57.67;;;;;;;;5141275;27;13356;-76
2021/11/20 17:05:36;;;;;;;;;75.00;58.00;;;;;;;;5142587;27;13754;-76
2021/11/20 17:08:02;;;;;;;;;73.33;58.33;;;;;;;;5143532;27;11507;-76
2021/11/20 17:10:28;;;;;;;;;71.33;57.00;;;;;;;;5142959;27;11512;-75
2021/11/20 17:12:53;;;;;;;;;76.33;58.00;;;;;;;;5142770;27;11576;-76
2021/11/20 17:15:18;;;;;;;;;68.00;54.33;;;;;;;;5142554;27;8771;-75
2021/11/20 17:17:44;;;;;;;;;73.67;58.33;;;;;;;;5143207;27;14444;-75
2021/11/20 17:20:10;;;;;;;;;71.33;55.00;;;;;;;;5141960;27;14095;-76
2021/11/20 17:22:39;;;;;;;;;71.00;53.67;;;;;;;;5124285;27;11869;-76
2021/11/20 17:25:06;;;;;;;;;67.67;53.67;;;;;;;;5142681;27;10581;-76
2021/11/20 17:27:33;;;;;;;;;67.33;52.67;;;;;;;;5143068;27;11640;-77
2021/11/20 17:29:59;;;;;;;;;74.00;53.67;;;;;;;;5142884;27;10992;-76
2021/11/20 17:32:24;;;;;;;;;66.33;53.00;;;;;;;;5142322;27;12254;-75
2021/11/20 17:34:50;;;;;;;;;73.00;56.00;;;;;;;;5142046;27;13468;-76
2021/11/20 17:37:15;;;;;;;;;72.33;52.33;;;;;;;;5142610;27;12432;-75
2021/11/20 17:39:40;;;;;;;;;64.00;49.33;;;;;;;;5142531;27;11668;-75
2021/11/20 17:42:06;;;;;;;;;71.00;54.33;;;;;;;;5143591;27;12215;-75
2021/11/20 17:44:32;;;;;;;;;69.00;53.33;;;;;;;;5124123;27;11932;-74
2021/11/20 17:46:57;;;;;;;;;71.67;51.00;;;;;;;;5142847;27;10875;-74
2021/11/20 17:49:22;;;;;;;;;70.00;56.67;;;;;;;;5143063;27;14646;-76
2021/11/20 17:51:48;;;;;;;;;76.67;57.00;;;;;;;;5124226;27;11416;-75
2021/11/20 17:54:14;;;;;;;;;73.33;58.33;;;;;;;;5142458;27;11018;-75
2021/11/20 17:56:39;;;;;;;;;62.67;51.00;;;;;;;;5140671;27;11360;-77
2021/11/20 17:59:05;;;;;;;;;74.67;55.33;;;;;;;;5141781;27;13394;-73
2021/11/20 18:01:30;;;;;;;;;75.00;58.00;;;;;;;;5142688;27;14386;-74
2021/11/20 18:03:56;;;;;;;;;70.67;55.00;;;;;;;;5142453;27;11352;-72
2021/11/20 18:06:21;;;;;;;;;70.67;54.67;;;;;;;;5142407;27;10814;-71
2021/11/20 18:08:52;;;;;;;;;68.33;54.33;;;;;;;;5142215;27;8887;-72
2021/11/20 18:11:18;;;;;;;;;70.00;55.00;;;;;;;;5142727;27;13385;-71
2021/11/20 18:13:43;;;;;;;;;69.67;53.00;;;;;;;;5122706;27;15378;-72
2021/11/20 18:16:08;;;;;;;;;70.67;55.33;;;;;;;;5142142;27;12367;-72
2021/11/20 18:18:34;;;;;;;;;74.00;59.00;;;;;;;;5142010;27;13500;-71
2021/11/20 18:20:59;;;;;;;;;70.67;57.00;;;;;;;;5141731;27;11530;-73
2021/11/20 18:23:25;;;;;;;;;77.00;57.00;;;;;;;;5141317;27;10352;-74
2021/11/20 18:25:51;;;;;;;;;70.33;55.00;;;;;;;;5141525;27;9110;-73
2021/11/20 18:28:16;;;;;;;;;74.00;56.00;;;;;;;;5122416;27;10859;-80
2021/11/20 18:30:43;;;;;;;;;69.67;53.67;;;;;;;;5141353;27;10575;-76
2021/11/20 18:33:09;;;;;;;;;60.33;47.67;;;;;;;;5141974;27;13458;-76
2021/11/20 18:35:34;;;;;;;;;66.33;52.00;;;;;;;;5141897;27;11396;-73
2021/11/20 18:37:59;;;;;;;;;66.33;51.67;;;;;;;;5123355;27;12572;-79
2021/11/20 18:40:25;;;;;;;;;71.33;52.00;;;;;;;;5141508;27;9044;-77
2021/11/20 18:42:51;;;;;;;;;63.67;51.00;;;;;;;;5141236;27;13290;-80
2021/11/20 18:45:17;;;;;;;;;61.00;51.00;;;;;;;;5141836;27;12437;-79
2021/11/20 18:47:42;;;;;;;;;66.33;51.00;;;;;;;;5142021;27;10248;-75
2021/11/20 18:50:08;;;;;;;;;59.67;48.33;;;;;;;;5141772;27;8864;-76
2021/11/20 18:52:33;;;;;;;;;62.00;52.00;;;;;;;;5141339;27;13257;-76
2021/11/20 18:54:59;;;;;;;;;66.33;51.33;;;;;;;;5139658;27;13775;-75
2021/11/20 18:57:24;;;;;;;;;61.67;51.33;;;;;;;;5136914;27;11364;-75
2021/11/20 18:59:50;;;;;;;;;65.00;51.00;;;;;;;;5119511;27;10931;-76
2021/11/20 19:02:15;;;;;;;;;75.00;55.00;;;;;;;;5139297;27;11566;-75
2021/11/20 19:04:43;;;;;;;;;68.33;52.33;;;;;;;;5139290;27;10513;-74
2021/11/20 19:07:08;;;;;;;;;73.00;58.67;;;;;;;;5138832;27;13583;-82
2021/11/20 19:09:33;;;;;;;;;71.00;56.00;;;;;;;;5120744;27;15746;-73
2021/11/20 19:11:59;;;;;;;;;76.67;60.00;;;;;;;;5140621;27;11577;-81
2021/11/20 19:14:24;;;;;;;;;73.00;58.67;;;;;;;;5139610;27;11736;-82
2021/11/20 19:16:49;;;;;;;;;78.00;58.00;;;;;;;;5139517;27;12281;-77
2021/11/20 19:19:15;;;;;;;;;75.00;58.00;;;;;;;;5138896;27;11425;-75
2021/11/20 19:21:40;;;;;;;;;72.33;59.33;;;;;;;;5140408;27;8844;-78
2021/11/20 19:24:06;;;;;;;;;76.67;58.00;;;;;;;;5138590;27;12517;-75
2021/11/20 19:26:31;;;;;;;;;80.00;58.33;;;;;;;;5139114;27;11455;-75
2021/11/20 19:28:59;;;;;;;;;79.33;59.67;;;;;;;;5139245;27;13239;-74
2021/11/20 19:31:25;;;;;;;;;73.67;57.33;;;;;;;;5138993;27;13371;-76
2021/11/20 19:33:51;;;;;;;;;75.00;58.33;;;;;;;;5139061;27;12051;-76
2021/11/20 19:36:19;;;;;;;;;75.33;57.67;;;;;;;;5140278;27;11880;-76
2021/11/20 19:38:44;;;;;;;;;79.33;57.33;;;;;;;;5140914;27;11660;-77
2021/11/20 19:41:11;;;;;;;;;66.33;52.67;;;;;;;;5138540;27;11582;-77
2021/11/20 19:43:36;;;;;;;;;67.33;53.00;;;;;;;;5141032;27;13334;-76
2021/11/20 19:46:02;;;;;;;;;62.33;50.67;;;;;;;;5141291;27;11966;-78
2021/11/20 19:48:28;;;;;;;;;67.67;50.33;;;;;;;;5139542;27;11528;-76
2021/11/20 19:50:53;;;;;;;;;63.33;52.33;;;;;;;;5139267;27;11385;-77
2021/11/20 19:53:19;;;;;;;;;64.67;52.67;;;;;;;;5139048;27;10385;-76
2021/11/20 19:55:44;;;;;;;;;77.33;58.00;;;;;;;;5138920;27;11360;-79
2021/11/20 19:58:10;;;;;;;;;65.33;55.33;;;;;;;;5139013;27;13425;-76
2021/11/20 20:00:37;;;;;;;;;77.33;58.67;;;;;;;;5136428;27;13382;-76
2021/11/20 20:03:03;;;;;;;;;77.33;58.00;;;;;;;;5139432;27;13298;-78
2021/11/20 20:05:29;;;;;;;;;76.00;59.00;;;;;;;;5138987;27;8794;-77
2021/11/20 20:07:55;;;;;;;;;77.67;58.00;;;;;;;;5139184;27;10348;-78
2021/11/20 20:10:23;;;;;;;;;79.33;59.00;;;;;;;;5120625;27;10404;-75
2021/11/20 20:12:49;;;;;;;;;75.00;57.00;;;;;;;;5138309;27;10500;-77
2021/11/20 20:15:15;;;;;;;;;72.00;58.33;;;;;;;;5138523;27;10614;-77
2021/11/20 20:17:40;;;;;;;;;75.67;59.33;;;;;;;;5139523;27;11442;-81
2021/11/20 20:20:08;;;;;;;;;73.00;59.33;;;;;;;;5139764;27;11016;-83
2021/11/20 20:22:33;;;;;;;;;67.00;49.67;;;;;;;;5119082;27;12462;-79
2021/11/20 20:24:58;;;;;;;;;72.00;58.33;;;;;;;;5138660;27;13898;-78
2021/11/20 20:27:24;;;;;;;;;69.67;56.00;;;;;;;;5138428;27;13748;-76
2021/11/20 20:29:50;;;;;;;;;69.33;53.00;;;;;;;;5139597;27;14277;-81
2021/11/20 20:32:15;;;;;;;;;72.33;55.67;;;;;;;;5144643;27;10814;-83
2021/11/20 20:34:41;;;;;;;;;72.00;58.33;;;;;;;;5144889;27;13230;-84
2021/11/20 20:37:09;;;;;;;;;68.67;53.33;;;;;;;;5144041;27;10507;-83
2021/11/20 20:39:38;;;;;;;;;76.00;59.33;;;;;;;;5139916;27;12347;-83
2021/11/20 20:42:04;;;;;;;;;75.00;59.00;;;;;;;;5139031;27;13413;-78
2021/11/20 20:44:30;;;;;;;;;71.67;56.00;;;;;;;;5138936;27;11447;-81
2021/11/20 20:46:56;;;;;;;;;73.00;56.67;;;;;;;;5135613;27;10526;-78
2021/11/20 20:49:21;;;;;;;;;71.00;55.67;;;;;;;;5138979;27;11372;-79
2021/11/20 20:51:47;;;;;;;;;71.67;55.00;;;;;;;;5139965;27;8786;-81
2021/11/20 20:54:12;;;;;;;;;69.33;56.00;;;;;;;;5139441;27;8928;-80
2021/11/20 20:56:38;;;;;;;;;70.00;54.33;;;;;;;;5139721;27;12419;-78
2021/11/20 20:59:03;;;;;;;;;76.00;56.00;;;;;;;;5121455;27;15949;-81
2021/11/20 21:01:29;;;;;;;;;68.00;54.33;;;;;;;;5140490;27;10905;-80
2021/11/20 21:03:55;;;;;;;;;68.33;55.67;;;;;;;;5121054;27;15347;-80
2021/11/20 21:06:24;;;;;;;;;68.67;53.00;;;;;;;;5120531;27;12429;-80
2021/11/20 21:08:56;;;;;;;;;66.67;52.67;;;;;;;;5121145;27;11104;-83
2021/11/20 21:11:21;;;;;;;;;29.00;22.00;;;;;;;;5140065;27;11507;-83
2021/11/20 21:13:46;;;;;;;;;67.00;53.67;;;;;;;;5140009;27;13776;-84
2021/11/20 21:16:15;;;;;;;;;64.33;53.67;;;;;;;;5139274;27;13234;-82
2021/11/20 21:18:57;;;;;;;;;70.67;54.67;;;;;;;;5139911;27;10354;-82
2021/11/20 21:24:11;;;;;;;;;71.33;58.67;;;;;;;;5138837;27;11454;-82
2021/11/20 21:26:37;;;;;;;;;71.67;54.33;;;;;;;;5120670;27;12547;-83
2021/11/20 21:29:35;;;;;;;;;64.00;53.00;;;;;;;;5140277;27;10377;-81
2021/11/20 21:32:20;;;;;;;;;66.00;53.00;;;;;;;;5112381;27;13829;-82
2021/11/20 21:34:50;;;;;;;;;70.33;57.67;;;;;;;;5142888;27;8798;-83
2021/11/20 21:37:36;;;;;;;;;77.00;59.67;;;;;;;;5143278;27;13470;-82
2021/11/20 21:40:02;;;;;;;;;76.67;58.00;;;;;;;;5140275;27;10942;-82
2021/11/20 21:42:27;;;;;;;;;77.67;61.00;;;;;;;;5143365;27;11429;-83
2021/11/20 21:44:53;;;;;;;;;78.00;59.67;;;;;;;;5143555;27;9519;-82
2021/11/20 21:47:21;;;;;;;;;77.00;59.33;;;;;;;;5143912;27;12259;-82
2021/11/20 21:49:46;;;;;;;;;80.33;60.00;;;;;;;;5124099;27;11779;-83
2021/11/20 21:52:12;;;;;;;;;79.67;61.00;;;;;;;;5143806;27;13231;-83
2021/11/20 21:54:41;;;;;;;;;76.33;60.33;;;;;;;;5143202;27;12466;-82
2021/11/20 21:57:07;;;;;;;;;76.00;61.00;;;;;;;;5143733;27;12593;-81